sensor_id;sensor_type;location;lat;lon;timestamp;P1;durP1;ratioP1;P2;durP2;ratioP2
12425;SDS011;6277;49.824;9.562;2023-06-19T00:00:07;4.15;;;3.42;;
12425;SDS011;6277;49.824;9.562;2023-06-19T00:02:39;3.55;;;3.20;;
12425;SDS011;6277;49.824;9.562;2023-06-19T00:05:05;4.18;;;3.63;;
12425;SDS011;6277;49.824;9.562;2023-06-19T00:07:31;3.63;;;3.28;;
12425;SDS011;6277;49.824;9.562;2023-06-19T00:09:57;3.28;;;2.97;;
12425;SDS011;6277;49.824;9.562;2023-06-19T00:12:22;3.67;;;3.17;;
12425;SDS011;6277;49.824;9.562;2023-06-19T00:14:48;4.13;;;3.72;;
12425;SDS011;6277;49.824;9.562;2023-06-19T00:17:13;4.15;;;3.20;;
12425;SDS011;6277;49.824;9.562;2023-06-19T00:19:42;3.53;;;3.22;;
12425;SDS011;6277;49.824;9.562;2023-06-19T00:22:08;5.75;;;3.20;;
12425;SDS011;6277;49.824;9.562;2023-06-19T00:24:34;3.60;;;3.30;;
12425;SDS011;6277;49.824;9.562;2023-06-19T00:26:59;4.20;;;3.70;;
12425;SDS011;6277;49.824;9.562;2023-06-19T00:29:28;3.65;;;3.33;;
12425;SDS011;6277;49.824;9.562;2023-06-19T00:31:54;3.90;;;3.50;;
12425;SDS011;6277;49.824;9.562;2023-06-19T00:34:20;4.85;;;3.33;;
12425;SDS011;6277;49.824;9.562;2023-06-19T00:36:45;3.83;;;3.45;;
12425;SDS011;6277;49.824;9.562;2023-06-19T00:39:11;3.80;;;3.47;;
12425;SDS011;6277;49.824;9.562;2023-06-19T00:41:37;3.58;;;3.28;;
12425;SDS011;6277;49.824;9.562;2023-06-19T00:44:04;4.18;;;3.50;;
12425;SDS011;6277;49.824;9.562;2023-06-19T00:46:30;4.00;;;3.50;;
12425;SDS011;6277;49.824;9.562;2023-06-19T00:48:56;3.33;;;2.97;;
12425;SDS011;6277;49.824;9.562;2023-06-19T00:51:22;3.53;;;3.22;;
12425;SDS011;6277;49.824;9.562;2023-06-19T00:53:48;3.50;;;3.10;;
12425;SDS011;6277;49.824;9.562;2023-06-19T00:56:13;4.28;;;3.58;;
12425;SDS011;6277;49.824;9.562;2023-06-19T00:58:40;5.30;;;3.63;;
12425;SDS011;6277;49.824;9.562;2023-06-19T01:01:06;4.72;;;3.80;;
12425;SDS011;6277;49.824;9.562;2023-06-19T01:03:31;4.18;;;3.63;;
12425;SDS011;6277;49.824;9.562;2023-06-19T01:05:57;3.65;;;3.35;;
12425;SDS011;6277;49.824;9.562;2023-06-19T01:08:48;4.47;;;3.30;;
12425;SDS011;6277;49.824;9.562;2023-06-19T01:11:23;3.60;;;3.30;;
12425;SDS011;6277;49.824;9.562;2023-06-19T01:13:57;3.50;;;3.20;;
12425;SDS011;6277;49.824;9.562;2023-06-19T01:16:25;4.07;;;3.38;;
12425;SDS011;6277;49.824;9.562;2023-06-19T01:18:52;5.00;;;3.30;;
12425;SDS011;6277;49.824;9.562;2023-06-19T01:21:18;4.15;;;3.75;;
12425;SDS011;6277;49.824;9.562;2023-06-19T01:23:45;3.40;;;3.10;;
12425;SDS011;6277;49.824;9.562;2023-06-19T01:26:11;4.05;;;3.38;;
12425;SDS011;6277;49.824;9.562;2023-06-19T01:28:39;4.25;;;3.50;;
12425;SDS011;6277;49.824;9.562;2023-06-19T01:31:08;4.03;;;3.65;;
12425;SDS011;6277;49.824;9.562;2023-06-19T01:33:44;4.72;;;3.58;;
12425;SDS011;6277;49.824;9.562;2023-06-19T01:36:12;3.85;;;3.42;;
12425;SDS011;6277;49.824;9.562;2023-06-19T01:38:39;3.88;;;3.42;;
12425;SDS011;6277;49.824;9.562;2023-06-19T01:41:07;3.67;;;3.38;;
12425;SDS011;6277;49.824;9.562;2023-06-19T01:43:34;3.60;;;3.20;;
12425;SDS011;6277;49.824;9.562;2023-06-19T01:46:00;4.65;;;3.63;;
12425;SDS011;6277;49.824;9.562;2023-06-19T01:48:26;3.80;;;3.22;;
12425;SDS011;6277;49.824;9.562;2023-06-19T01:50:51;4.25;;;3.15;;
12425;SDS011;6277;49.824;9.562;2023-06-19T01:53:17;3.15;;;2.83;;
12425;SDS011;6277;49.824;9.562;2023-06-19T01:55:43;3.80;;;3.22;;
12425;SDS011;6277;49.824;9.562;2023-06-19T01:58:09;3.08;;;2.78;;
12425;SDS011;6277;49.824;9.562;2023-06-19T02:00:34;3.78;;;3.45;;
12425;SDS011;6277;49.824;9.562;2023-06-19T02:03:00;4.45;;;3.97;;
12425;SDS011;6277;49.824;9.562;2023-06-19T02:05:26;4.03;;;3.63;;
12425;SDS011;6277;49.824;9.562;2023-06-19T02:07:52;3.10;;;2.80;;
12425;SDS011;6277;49.824;9.562;2023-06-19T02:10:17;3.50;;;2.90;;
12425;SDS011;6277;49.824;9.562;2023-06-19T02:12:43;3.67;;;3.05;;
12425;SDS011;6277;49.824;9.562;2023-06-19T02:15:09;4.28;;;2.97;;
12425;SDS011;6277;49.824;9.562;2023-06-19T02:17:34;5.35;;;3.40;;
12425;SDS011;6277;49.824;9.562;2023-06-19T02:20:00;3.83;;;3.42;;
12425;SDS011;6277;49.824;9.562;2023-06-19T02:22:25;3.40;;;3.10;;
12425;SDS011;6277;49.824;9.562;2023-06-19T02:24:51;3.88;;;3.47;;
12425;SDS011;6277;49.824;9.562;2023-06-19T02:27:17;3.45;;;3.00;;
12425;SDS011;6277;49.824;9.562;2023-06-19T02:29:42;3.80;;;3.05;;
12425;SDS011;6277;49.824;9.562;2023-06-19T02:32:08;3.45;;;3.15;;
12425;SDS011;6277;49.824;9.562;2023-06-19T02:34:33;3.83;;;3.30;;
12425;SDS011;6277;49.824;9.562;2023-06-19T02:36:59;4.25;;;3.40;;
12425;SDS011;6277;49.824;9.562;2023-06-19T02:39:24;4.25;;;3.60;;
12425;SDS011;6277;49.824;9.562;2023-06-19T02:41:50;4.18;;;3.47;;
12425;SDS011;6277;49.824;9.562;2023-06-19T02:44:15;4.13;;;3.72;;
12425;SDS011;6277;49.824;9.562;2023-06-19T02:46:41;3.83;;;3.45;;
12425;SDS011;6277;49.824;9.562;2023-06-19T02:49:07;5.22;;;4.10;;
12425;SDS011;6277;49.824;9.562;2023-06-19T02:51:32;4.20;;;3.08;;
12425;SDS011;6277;49.824;9.562;2023-06-19T02:53:58;4.40;;;3.45;;
12425;SDS011;6277;49.824;9.562;2023-06-19T02:56:23;4.65;;;3.88;;
12425;SDS011;6277;49.824;9.562;2023-06-19T02:58:50;4.40;;;3.58;;
12425;SDS011;6277;49.824;9.562;2023-06-19T03:01:15;3.78;;;3.35;;
12425;SDS011;6277;49.824;9.562;2023-06-19T03:03:41;5.35;;;3.33;;
12425;SDS011;6277;49.824;9.562;2023-06-19T03:06:07;3.85;;;3.50;;
12425;SDS011;6277;49.824;9.562;2023-06-19T03:08:33;4.78;;;3.92;;
12425;SDS011;6277;49.824;9.562;2023-06-19T03:11:00;4.90;;;3.42;;
12425;SDS011;6277;49.824;9.562;2023-06-19T03:13:25;5.57;;;3.85;;
12425;SDS011;6277;49.824;9.562;2023-06-19T03:15:51;4.50;;;3.97;;
12425;SDS011;6277;49.824;9.562;2023-06-19T03:18:16;4.75;;;3.97;;
12425;SDS011;6277;49.824;9.562;2023-06-19T03:20:42;4.78;;;4.28;;
12425;SDS011;6277;49.824;9.562;2023-06-19T03:23:08;4.43;;;3.90;;
12425;SDS011;6277;49.824;9.562;2023-06-19T03:25:33;4.20;;;3.80;;
12425;SDS011;6277;49.824;9.562;2023-06-19T03:28:03;4.30;;;3.88;;
12425;SDS011;6277;49.824;9.562;2023-06-19T03:30:29;4.47;;;3.85;;
12425;SDS011;6277;49.824;9.562;2023-06-19T03:32:55;4.18;;;3.78;;
12425;SDS011;6277;49.824;9.562;2023-06-19T03:35:20;5.35;;;4.13;;
12425;SDS011;6277;49.824;9.562;2023-06-19T03:37:46;4.45;;;4.05;;
12425;SDS011;6277;49.824;9.562;2023-06-19T03:40:11;6.35;;;4.28;;
12425;SDS011;6277;49.824;9.562;2023-06-19T03:42:39;4.20;;;3.80;;
12425;SDS011;6277;49.824;9.562;2023-06-19T03:45:05;5.25;;;3.67;;
12425;SDS011;6277;49.824;9.562;2023-06-19T03:47:31;4.60;;;3.78;;
12425;SDS011;6277;49.824;9.562;2023-06-19T03:49:56;3.90;;;3.50;;
12425;SDS011;6277;49.824;9.562;2023-06-19T03:52:22;5.20;;;3.40;;
12425;SDS011;6277;49.824;9.562;2023-06-19T03:54:48;4.00;;;3.50;;
12425;SDS011;6277;49.824;9.562;2023-06-19T03:57:13;4.50;;;4.05;;
12425;SDS011;6277;49.824;9.562;2023-06-19T03:59:39;4.32;;;3.45;;
12425;SDS011;6277;49.824;9.562;2023-06-19T04:02:04;3.22;;;2.72;;
12425;SDS011;6277;49.824;9.562;2023-06-19T04:04:30;4.47;;;3.20;;
12425;SDS011;6277;49.824;9.562;2023-06-19T04:06:55;3.88;;;3.35;;
12425;SDS011;6277;49.824;9.562;2023-06-19T04:09:21;7.32;;;3.55;;
12425;SDS011;6277;49.824;9.562;2023-06-19T04:11:46;3.97;;;3.58;;
12425;SDS011;6277;49.824;9.562;2023-06-19T04:14:12;4.80;;;3.83;;
12425;SDS011;6277;49.824;9.562;2023-06-19T04:16:37;4.80;;;3.78;;
12425;SDS011;6277;49.824;9.562;2023-06-19T04:19:03;4.30;;;3.67;;
12425;SDS011;6277;49.824;9.562;2023-06-19T04:21:28;4.53;;;3.70;;
12425;SDS011;6277;49.824;9.562;2023-06-19T04:23:54;4.68;;;4.18;;
12425;SDS011;6277;49.824;9.562;2023-06-19T04:26:19;4.25;;;3.85;;
12425;SDS011;6277;49.824;9.562;2023-06-19T04:28:46;4.20;;;3.55;;
12425;SDS011;6277;49.824;9.562;2023-06-19T04:31:12;4.10;;;3.70;;
12425;SDS011;6277;49.824;9.562;2023-06-19T04:33:37;4.43;;;3.83;;
12425;SDS011;6277;49.824;9.562;2023-06-19T04:36:05;4.70;;;3.92;;
12425;SDS011;6277;49.824;9.562;2023-06-19T04:38:30;4.30;;;3.85;;
12425;SDS011;6277;49.824;9.562;2023-06-19T04:40:56;5.15;;;4.03;;
12425;SDS011;6277;49.824;9.562;2023-06-19T04:43:22;4.57;;;3.85;;
12425;SDS011;6277;49.824;9.562;2023-06-19T04:45:49;4.38;;;3.78;;
12425;SDS011;6277;49.824;9.562;2023-06-19T04:48:15;4.43;;;4.03;;
12425;SDS011;6277;49.824;9.562;2023-06-19T04:50:40;4.50;;;4.10;;
12425;SDS011;6277;49.824;9.562;2023-06-19T04:53:06;4.40;;;4.00;;
12425;SDS011;6277;49.824;9.562;2023-06-19T04:55:31;4.68;;;4.28;;
12425;SDS011;6277;49.824;9.562;2023-06-19T04:57:57;3.58;;;3.28;;
12425;SDS011;6277;49.824;9.562;2023-06-19T05:00:23;3.85;;;3.55;;
12425;SDS011;6277;49.824;9.562;2023-06-19T05:02:49;5.40;;;3.92;;
12425;SDS011;6277;49.824;9.562;2023-06-19T05:05:15;4.35;;;3.95;;
12425;SDS011;6277;49.824;9.562;2023-06-19T05:07:41;4.90;;;4.15;;
12425;SDS011;6277;49.824;9.562;2023-06-19T05:10:07;5.40;;;4.20;;
12425;SDS011;6277;49.824;9.562;2023-06-19T05:12:34;4.60;;;4.20;;
12425;SDS011;6277;49.824;9.562;2023-06-19T05:15:00;4.65;;;4.15;;
12425;SDS011;6277;49.824;9.562;2023-06-19T05:17:26;5.50;;;4.47;;
12425;SDS011;6277;49.824;9.562;2023-06-19T05:19:52;4.25;;;3.83;;
12425;SDS011;6277;49.824;9.562;2023-06-19T05:22:18;4.75;;;3.78;;
12425;SDS011;6277;49.824;9.562;2023-06-19T05:24:49;4.60;;;4.10;;
12425;SDS011;6277;49.824;9.562;2023-06-19T05:27:15;6.22;;;4.43;;
12425;SDS011;6277;49.824;9.562;2023-06-19T05:29:40;5.07;;;4.43;;
12425;SDS011;6277;49.824;9.562;2023-06-19T05:32:06;4.53;;;3.70;;
12425;SDS011;6277;49.824;9.562;2023-06-19T05:34:32;4.00;;;3.60;;
12425;SDS011;6277;49.824;9.562;2023-06-19T05:36:58;4.65;;;3.80;;
12425;SDS011;6277;49.824;9.562;2023-06-19T05:39:25;4.50;;;4.10;;
12425;SDS011;6277;49.824;9.562;2023-06-19T05:41:51;4.57;;;4.18;;
12425;SDS011;6277;49.824;9.562;2023-06-19T05:44:16;3.85;;;3.45;;
12425;SDS011;6277;49.824;9.562;2023-06-19T05:46:43;4.40;;;3.92;;
12425;SDS011;6277;49.824;9.562;2023-06-19T05:49:09;4.03;;;3.63;;
12425;SDS011;6277;49.824;9.562;2023-06-19T05:51:34;4.68;;;3.42;;
12425;SDS011;6277;49.824;9.562;2023-06-19T05:54:00;4.15;;;3.72;;
12425;SDS011;6277;49.824;9.562;2023-06-19T05:56:31;4.30;;;3.90;;
12425;SDS011;6277;49.824;9.562;2023-06-19T05:58:58;4.18;;;3.78;;
12425;SDS011;6277;49.824;9.562;2023-06-19T06:01:25;3.70;;;3.40;;
12425;SDS011;6277;49.824;9.562;2023-06-19T06:03:52;4.43;;;3.63;;
12425;SDS011;6277;49.824;9.562;2023-06-19T06:06:19;4.10;;;3.45;;
12425;SDS011;6277;49.824;9.562;2023-06-19T06:08:44;5.75;;;3.90;;
12425;SDS011;6277;49.824;9.562;2023-06-19T06:11:10;4.43;;;3.35;;
12425;SDS011;6277;49.824;9.562;2023-06-19T06:13:35;3.78;;;3.05;;
12425;SDS011;6277;49.824;9.562;2023-06-19T06:16:01;3.72;;;3.20;;
12425;SDS011;6277;49.824;9.562;2023-06-19T06:18:26;5.55;;;3.75;;
12425;SDS011;6277;49.824;9.562;2023-06-19T06:20:52;3.17;;;2.88;;
12425;SDS011;6277;49.824;9.562;2023-06-19T06:23:18;3.00;;;2.70;;
12425;SDS011;6277;49.824;9.562;2023-06-19T06:25:43;2.95;;;2.70;;
12425;SDS011;6277;49.824;9.562;2023-06-19T06:28:10;3.15;;;2.78;;
12425;SDS011;6277;49.824;9.562;2023-06-19T06:30:36;3.30;;;2.97;;
12425;SDS011;6277;49.824;9.562;2023-06-19T06:33:02;3.30;;;2.92;;
12425;SDS011;6277;49.824;9.562;2023-06-19T06:35:27;3.00;;;2.70;;
12425;SDS011;6277;49.824;9.562;2023-06-19T06:37:53;2.67;;;2.47;;
12425;SDS011;6277;49.824;9.562;2023-06-19T06:40:19;3.05;;;2.45;;
12425;SDS011;6277;49.824;9.562;2023-06-19T06:42:44;3.80;;;2.97;;
12425;SDS011;6277;49.824;9.562;2023-06-19T06:45:10;3.10;;;2.80;;
12425;SDS011;6277;49.824;9.562;2023-06-19T06:47:35;2.92;;;2.58;;
12425;SDS011;6277;49.824;9.562;2023-06-19T06:50:01;3.40;;;2.45;;
12425;SDS011;6277;49.824;9.562;2023-06-19T06:52:27;2.92;;;2.60;;
12425;SDS011;6277;49.824;9.562;2023-06-19T06:54:53;2.75;;;2.55;;
12425;SDS011;6277;49.824;9.562;2023-06-19T06:57:18;3.00;;;2.70;;
12425;SDS011;6277;49.824;9.562;2023-06-19T06:59:44;3.17;;;2.65;;
12425;SDS011;6277;49.824;9.562;2023-06-19T07:02:09;2.78;;;2.58;;
12425;SDS011;6277;49.824;9.562;2023-06-19T07:04:35;3.47;;;2.65;;
12425;SDS011;6277;49.824;9.562;2023-06-19T07:07:01;3.15;;;2.85;;
12425;SDS011;6277;49.824;9.562;2023-06-19T07:09:28;3.25;;;2.95;;
12425;SDS011;6277;49.824;9.562;2023-06-19T07:11:54;2.80;;;2.40;;
12425;SDS011;6277;49.824;9.562;2023-06-19T07:14:19;4.95;;;2.85;;
12425;SDS011;6277;49.824;9.562;2023-06-19T07:16:45;2.90;;;2.60;;
12425;SDS011;6277;49.824;9.562;2023-06-19T07:19:11;3.10;;;2.40;;
12425;SDS011;6277;49.824;9.562;2023-06-19T07:21:37;2.65;;;2.45;;
12425;SDS011;6277;49.824;9.562;2023-06-19T07:24:04;2.70;;;2.50;;
12425;SDS011;6277;49.824;9.562;2023-06-19T07:26:30;2.53;;;2.33;;
12425;SDS011;6277;49.824;9.562;2023-06-19T07:28:55;2.88;;;2.67;;
12425;SDS011;6277;49.824;9.562;2023-06-19T07:31:21;2.42;;;2.22;;
12425;SDS011;6277;49.824;9.562;2023-06-19T07:33:46;2.95;;;2.33;;
12425;SDS011;6277;49.824;9.562;2023-06-19T07:36:12;3.28;;;2.35;;
12425;SDS011;6277;49.824;9.562;2023-06-19T07:38:39;2.10;;;1.90;;
12425;SDS011;6277;49.824;9.562;2023-06-19T07:41:05;2.80;;;2.42;;
12425;SDS011;6277;49.824;9.562;2023-06-19T07:43:32;2.35;;;2.15;;
12425;SDS011;6277;49.824;9.562;2023-06-19T07:45:58;2.28;;;2.05;;
12425;SDS011;6277;49.824;9.562;2023-06-19T07:48:24;2.80;;;2.40;;
12425;SDS011;6277;49.824;9.562;2023-06-19T07:50:49;3.60;;;2.58;;
12425;SDS011;6277;49.824;9.562;2023-06-19T07:53:15;2.45;;;2.25;;
12425;SDS011;6277;49.824;9.562;2023-06-19T07:55:41;2.30;;;1.95;;
12425;SDS011;6277;49.824;9.562;2023-06-19T07:58:06;2.30;;;2.10;;
12425;SDS011;6277;49.824;9.562;2023-06-19T08:00:32;2.67;;;2.10;;
12425;SDS011;6277;49.824;9.562;2023-06-19T08:02:58;2.45;;;2.10;;
12425;SDS011;6277;49.824;9.562;2023-06-19T08:05:24;2.50;;;2.30;;
12425;SDS011;6277;49.824;9.562;2023-06-19T08:07:49;2.42;;;2.22;;
12425;SDS011;6277;49.824;9.562;2023-06-19T08:10:15;2.42;;;2.10;;
12425;SDS011;6277;49.824;9.562;2023-06-19T08:12:41;2.45;;;2.25;;
12425;SDS011;6277;49.824;9.562;2023-06-19T08:15:07;2.60;;;2.25;;
12425;SDS011;6277;49.824;9.562;2023-06-19T08:17:33;2.38;;;2.08;;
12425;SDS011;6277;49.824;9.562;2023-06-19T08:20:00;2.63;;;2.20;;
12425;SDS011;6277;49.824;9.562;2023-06-19T08:22:26;2.45;;;2.25;;
12425;SDS011;6277;49.824;9.562;2023-06-19T08:24:51;2.45;;;2.25;;
12425;SDS011;6277;49.824;9.562;2023-06-19T08:27:17;2.10;;;1.90;;
12425;SDS011;6277;49.824;9.562;2023-06-19T08:29:42;2.58;;;2.00;;
12425;SDS011;6277;49.824;9.562;2023-06-19T08:32:08;2.38;;;2.17;;
12425;SDS011;6277;49.824;9.562;2023-06-19T08:34:34;2.80;;;2.55;;
12425;SDS011;6277;49.824;9.562;2023-06-19T08:37:00;2.30;;;2.10;;
12425;SDS011;6277;49.824;9.562;2023-06-19T08:39:26;2.15;;;1.95;;
12425;SDS011;6277;49.824;9.562;2023-06-19T08:41:51;2.13;;;1.92;;
12425;SDS011;6277;49.824;9.562;2023-06-19T08:44:18;2.58;;;2.38;;
12425;SDS011;6277;49.824;9.562;2023-06-19T08:46:44;2.78;;;2.00;;
12425;SDS011;6277;49.824;9.562;2023-06-19T08:49:10;2.00;;;1.80;;
12425;SDS011;6277;49.824;9.562;2023-06-19T08:51:36;2.25;;;2.05;;
12425;SDS011;6277;49.824;9.562;2023-06-19T08:54:03;2.30;;;2.10;;
12425;SDS011;6277;49.824;9.562;2023-06-19T08:56:32;3.72;;;2.33;;
12425;SDS011;6277;49.824;9.562;2023-06-19T08:59:12;2.55;;;2.35;;
12425;SDS011;6277;49.824;9.562;2023-06-19T09:01:39;2.20;;;2.00;;
12425;SDS011;6277;49.824;9.562;2023-06-19T09:04:14;2.67;;;2.45;;
12425;SDS011;6277;49.824;9.562;2023-06-19T09:06:49;2.67;;;2.40;;
12425;SDS011;6277;49.824;9.562;2023-06-19T09:09:16;3.10;;;2.58;;
12425;SDS011;6277;49.824;9.562;2023-06-19T09:11:56;4.38;;;2.08;;
12425;SDS011;6277;49.824;9.562;2023-06-19T09:14:39;2.30;;;2.10;;
12425;SDS011;6277;49.824;9.562;2023-06-19T09:17:12;2.95;;;2.50;;
12425;SDS011;6277;49.824;9.562;2023-06-19T09:19:47;2.58;;;2.38;;
12425;SDS011;6277;49.824;9.562;2023-06-19T09:22:17;3.00;;;2.60;;
12425;SDS011;6277;49.824;9.562;2023-06-19T09:24:45;2.78;;;2.42;;
12425;SDS011;6277;49.824;9.562;2023-06-19T09:27:18;2.67;;;2.47;;
12425;SDS011;6277;49.824;9.562;2023-06-19T09:29:46;2.53;;;2.33;;
12425;SDS011;6277;49.824;9.562;2023-06-19T09:32:23;2.40;;;2.20;;
12425;SDS011;6277;49.824;9.562;2023-06-19T09:34:51;2.20;;;2.00;;
12425;SDS011;6277;49.824;9.562;2023-06-19T09:37:21;2.28;;;2.08;;
12425;SDS011;6277;49.824;9.562;2023-06-19T09:39:49;2.90;;;2.60;;
12425;SDS011;6277;49.824;9.562;2023-06-19T09:42:19;7.05;;;2.60;;
12425;SDS011;6277;49.824;9.562;2023-06-19T09:45:02;2.75;;;2.13;;
12425;SDS011;6277;49.824;9.562;2023-06-19T09:47:30;2.60;;;2.40;;
12425;SDS011;6277;49.824;9.562;2023-06-19T09:49:59;5.20;;;2.75;;
12425;SDS011;6277;49.824;9.562;2023-06-19T09:52:26;3.15;;;2.85;;
12425;SDS011;6277;49.824;9.562;2023-06-19T09:54:53;2.72;;;2.47;;
12425;SDS011;6277;49.824;9.562;2023-06-19T09:57:19;3.65;;;2.58;;
12425;SDS011;6277;49.824;9.562;2023-06-19T09:59:50;2.97;;;2.67;;
12425;SDS011;6277;49.824;9.562;2023-06-19T10:02:19;2.60;;;2.40;;
12425;SDS011;6277;49.824;9.562;2023-06-19T10:04:49;2.95;;;2.50;;
12425;SDS011;6277;49.824;9.562;2023-06-19T10:07:23;2.63;;;2.42;;
12425;SDS011;6277;49.824;9.562;2023-06-19T10:09:56;2.50;;;2.30;;
12425;SDS011;6277;49.824;9.562;2023-06-19T10:12:33;2.03;;;1.92;;
12425;SDS011;6277;49.824;9.562;2023-06-19T10:15:08;2.78;;;2.30;;
12425;SDS011;6277;49.824;9.562;2023-06-19T10:17:35;3.00;;;2.70;;
12425;SDS011;6277;49.824;9.562;2023-06-19T10:20:00;3.22;;;2.45;;
12425;SDS011;6277;49.824;9.562;2023-06-19T10:22:32;2.75;;;2.53;;
12425;SDS011;6277;49.824;9.562;2023-06-19T10:24:58;3.05;;;2.30;;
12425;SDS011;6277;49.824;9.562;2023-06-19T10:27:24;3.05;;;2.53;;
12425;SDS011;6277;49.824;9.562;2023-06-19T10:29:53;2.63;;;2.42;;
12425;SDS011;6277;49.824;9.562;2023-06-19T10:32:20;2.95;;;2.53;;
12425;SDS011;6277;49.824;9.562;2023-06-19T10:34:46;2.58;;;2.33;;
12425;SDS011;6277;49.824;9.562;2023-06-19T10:37:14;2.50;;;2.30;;
12425;SDS011;6277;49.824;9.562;2023-06-19T10:39:40;3.83;;;2.30;;
12425;SDS011;6277;49.824;9.562;2023-06-19T10:42:06;2.63;;;2.42;;
12425;SDS011;6277;49.824;9.562;2023-06-19T10:44:32;2.90;;;2.33;;
12425;SDS011;6277;49.824;9.562;2023-06-19T10:46:58;3.58;;;2.60;;
12425;SDS011;6277;49.824;9.562;2023-06-19T10:49:23;2.42;;;2.22;;
12425;SDS011;6277;49.824;9.562;2023-06-19T10:51:49;2.92;;;2.30;;
12425;SDS011;6277;49.824;9.562;2023-06-19T10:54:15;2.25;;;2.05;;
12425;SDS011;6277;49.824;9.562;2023-06-19T10:56:41;3.30;;;2.72;;
12425;SDS011;6277;49.824;9.562;2023-06-19T10:59:09;2.75;;;2.55;;
12425;SDS011;6277;49.824;9.562;2023-06-19T11:04:09;3.30;;;2.58;;
12425;SDS011;6277;49.824;9.562;2023-06-19T11:06:35;4.05;;;2.42;;
12425;SDS011;6277;49.824;9.562;2023-06-19T11:09:02;2.88;;;2.58;;
12425;SDS011;6277;49.824;9.562;2023-06-19T11:14:01;3.00;;;2.70;;
12425;SDS011;6277;49.824;9.562;2023-06-19T11:16:27;4.05;;;2.40;;
12425;SDS011;6277;49.824;9.562;2023-06-19T11:18:59;4.03;;;2.40;;
12425;SDS011;6277;49.824;9.562;2023-06-19T11:21:29;2.53;;;2.33;;
12425;SDS011;6277;49.824;9.562;2023-06-19T11:23:57;2.67;;;2.45;;
12425;SDS011;6277;49.824;9.562;2023-06-19T11:26:24;3.20;;;2.33;;
12425;SDS011;6277;49.824;9.562;2023-06-19T11:28:50;2.72;;;2.53;;
12425;SDS011;6277;49.824;9.562;2023-06-19T11:31:15;2.58;;;2.38;;
12425;SDS011;6277;49.824;9.562;2023-06-19T11:33:41;2.88;;;2.60;;
12425;SDS011;6277;49.824;9.562;2023-06-19T11:36:07;2.50;;;2.30;;
12425;SDS011;6277;49.824;9.562;2023-06-19T11:38:33;2.65;;;2.45;;
12425;SDS011;6277;49.824;9.562;2023-06-19T11:41:03;3.10;;;2.80;;
12425;SDS011;6277;49.824;9.562;2023-06-19T11:43:32;3.28;;;2.58;;
12425;SDS011;6277;49.824;9.562;2023-06-19T11:46:03;2.95;;;2.47;;
12425;SDS011;6277;49.824;9.562;2023-06-19T11:48:30;3.45;;;2.35;;
12425;SDS011;6277;49.824;9.562;2023-06-19T11:50:56;2.83;;;2.60;;
12425;SDS011;6277;49.824;9.562;2023-06-19T11:53:22;4.30;;;2.70;;
12425;SDS011;6277;49.824;9.562;2023-06-19T11:55:49;2.40;;;2.20;;
12425;SDS011;6277;49.824;9.562;2023-06-19T11:58:15;2.80;;;2.58;;
12425;SDS011;6277;49.824;9.562;2023-06-19T12:00:41;2.83;;;2.63;;
12425;SDS011;6277;49.824;9.562;2023-06-19T12:03:08;3.45;;;2.67;;
12425;SDS011;6277;49.824;9.562;2023-06-19T12:05:34;2.63;;;2.42;;
12425;SDS011;6277;49.824;9.562;2023-06-19T12:08:00;4.68;;;2.78;;
12425;SDS011;6277;49.824;9.562;2023-06-19T12:10:29;2.75;;;2.55;;
12425;SDS011;6277;49.824;9.562;2023-06-19T12:12:55;2.58;;;2.33;;
12425;SDS011;6277;49.824;9.562;2023-06-19T12:15:20;3.20;;;2.90;;
12425;SDS011;6277;49.824;9.562;2023-06-19T12:17:46;2.60;;;2.40;;
12425;SDS011;6277;49.824;9.562;2023-06-19T12:20:12;2.60;;;2.25;;
12425;SDS011;6277;49.824;9.562;2023-06-19T12:22:40;2.58;;;2.38;;
12425;SDS011;6277;49.824;9.562;2023-06-19T12:25:07;2.38;;;2.17;;
12425;SDS011;6277;49.824;9.562;2023-06-19T12:27:33;2.70;;;2.50;;
12425;SDS011;6277;49.824;9.562;2023-06-19T12:29:59;2.83;;;2.50;;
12425;SDS011;6277;49.824;9.562;2023-06-19T12:32:24;3.05;;;2.75;;
12425;SDS011;6277;49.824;9.562;2023-06-19T12:34:50;2.50;;;2.30;;
12425;SDS011;6277;49.824;9.562;2023-06-19T12:37:19;2.45;;;2.25;;
12425;SDS011;6277;49.824;9.562;2023-06-19T12:39:45;2.67;;;2.20;;
12425;SDS011;6277;49.824;9.562;2023-06-19T12:42:11;2.53;;;2.33;;
12425;SDS011;6277;49.824;9.562;2023-06-19T12:44:39;3.50;;;2.65;;
12425;SDS011;6277;49.824;9.562;2023-06-19T12:47:05;2.60;;;2.40;;
12425;SDS011;6277;49.824;9.562;2023-06-19T12:49:32;2.83;;;2.50;;
12425;SDS011;6277;49.824;9.562;2023-06-19T12:51:57;2.78;;;2.58;;
12425;SDS011;6277;49.824;9.562;2023-06-19T12:54:23;2.22;;;2.10;;
12425;SDS011;6277;49.824;9.562;2023-06-19T12:56:49;2.47;;;2.28;;
12425;SDS011;6277;49.824;9.562;2023-06-19T12:59:15;2.88;;;2.10;;
12425;SDS011;6277;49.824;9.562;2023-06-19T13:01:41;2.67;;;2.47;;
12425;SDS011;6277;49.824;9.562;2023-06-19T13:04:07;2.97;;;2.67;;
12425;SDS011;6277;49.824;9.562;2023-06-19T13:06:33;2.83;;;2.60;;
12425;SDS011;6277;49.824;9.562;2023-06-19T13:08:59;3.13;;;2.38;;
12425;SDS011;6277;49.824;9.562;2023-06-19T13:11:24;2.83;;;2.58;;
12425;SDS011;6277;49.824;9.562;2023-06-19T13:13:50;2.50;;;2.30;;
12425;SDS011;6277;49.824;9.562;2023-06-19T13:16:16;2.92;;;2.55;;
12425;SDS011;6277;49.824;9.562;2023-06-19T13:18:43;2.42;;;2.22;;
12425;SDS011;6277;49.824;9.562;2023-06-19T13:21:09;2.13;;;1.92;;
12425;SDS011;6277;49.824;9.562;2023-06-19T13:23:34;2.40;;;2.20;;
12425;SDS011;6277;49.824;9.562;2023-06-19T13:26:00;2.83;;;2.55;;
12425;SDS011;6277;49.824;9.562;2023-06-19T13:28:25;2.22;;;2.00;;
12425;SDS011;6277;49.824;9.562;2023-06-19T13:30:51;2.63;;;2.42;;
12425;SDS011;6277;49.824;9.562;2023-06-19T13:33:16;2.42;;;2.22;;
12425;SDS011;6277;49.824;9.562;2023-06-19T13:35:42;2.45;;;2.20;;
12425;SDS011;6277;49.824;9.562;2023-06-19T13:38:08;2.38;;;2.17;;
12425;SDS011;6277;49.824;9.562;2023-06-19T13:40:34;2.63;;;2.20;;
12425;SDS011;6277;49.824;9.562;2023-06-19T13:43:00;2.92;;;2.38;;
12425;SDS011;6277;49.824;9.562;2023-06-19T13:45:27;2.70;;;2.50;;
12425;SDS011;6277;49.824;9.562;2023-06-19T13:47:53;2.58;;;2.38;;
12425;SDS011;6277;49.824;9.562;2023-06-19T13:50:18;2.50;;;2.30;;
12425;SDS011;6277;49.824;9.562;2023-06-19T13:52:47;2.90;;;2.70;;
12425;SDS011;6277;49.824;9.562;2023-06-19T13:55:13;3.03;;;2.80;;
12425;SDS011;6277;49.824;9.562;2023-06-19T13:57:42;2.60;;;2.40;;
12425;SDS011;6277;49.824;9.562;2023-06-19T14:00:09;2.88;;;2.55;;
12425;SDS011;6277;49.824;9.562;2023-06-19T14:02:38;3.65;;;2.50;;
12425;SDS011;6277;49.824;9.562;2023-06-19T14:05:05;3.00;;;2.47;;
12425;SDS011;6277;49.824;9.562;2023-06-19T14:07:32;2.80;;;2.60;;
12425;SDS011;6277;49.824;9.562;2023-06-19T14:09:58;2.72;;;2.33;;
12425;SDS011;6277;49.824;9.562;2023-06-19T14:12:24;2.50;;;2.30;;
12425;SDS011;6277;49.824;9.562;2023-06-19T14:14:50;2.90;;;2.70;;
12425;SDS011;6277;49.824;9.562;2023-06-19T14:17:16;2.58;;;2.30;;
12425;SDS011;6277;49.824;9.562;2023-06-19T14:19:42;3.00;;;2.70;;
12425;SDS011;6277;49.824;9.562;2023-06-19T14:22:07;2.85;;;2.60;;
12425;SDS011;6277;49.824;9.562;2023-06-19T14:24:33;2.72;;;2.53;;
12425;SDS011;6277;49.824;9.562;2023-06-19T14:26:58;2.75;;;2.50;;
12425;SDS011;6277;49.824;9.562;2023-06-19T14:29:24;2.60;;;2.40;;
12425;SDS011;6277;49.824;9.562;2023-06-19T14:31:52;2.72;;;2.42;;
12425;SDS011;6277;49.824;9.562;2023-06-19T14:34:18;2.67;;;2.45;;
12425;SDS011;6277;49.824;9.562;2023-06-19T14:36:45;2.72;;;2.13;;
12425;SDS011;6277;49.824;9.562;2023-06-19T14:39:11;2.65;;;2.45;;
12425;SDS011;6277;49.824;9.562;2023-06-19T14:41:37;2.33;;;2.13;;
12425;SDS011;6277;49.824;9.562;2023-06-19T14:44:03;2.80;;;2.60;;
12425;SDS011;6277;49.824;9.562;2023-06-19T14:46:30;2.33;;;2.13;;
12425;SDS011;6277;49.824;9.562;2023-06-19T14:48:56;3.15;;;2.60;;
12425;SDS011;6277;49.824;9.562;2023-06-19T14:51:23;2.47;;;2.28;;
12425;SDS011;6277;49.824;9.562;2023-06-19T14:53:49;2.50;;;2.30;;
12425;SDS011;6277;49.824;9.562;2023-06-19T14:56:15;2.47;;;2.28;;
12425;SDS011;6277;49.824;9.562;2023-06-19T14:58:41;2.53;;;2.17;;
12425;SDS011;6277;49.824;9.562;2023-06-19T15:01:07;2.50;;;2.30;;